Terminal Aerodrome Forecast
Issued by NWS

Home | Current Version | Previous Version | Text Only | Print | Product List | Glossary On
Versions: 1 2 3 4 5 6 7 8 9 10 11 12 13 14 15 16 17 18 19 20 21 22 23 24 25 26 27 28 29 30 31 32 33 34
473
FTUS43 KGRR 121143 AAA
TAFJXN
TAF AMD
KJXN 121143Z 1212/1312 30012G24KT 2SM -SHSN BKN028
     FM121230 30014G25KT P6SM VCSH SCT025 BKN040
      TEMPO 1213/1217 2SM -SHSN OVC018
     FM121800 31018G28KT P6SM VCSH OVC025
     FM130200 30007KT P6SM BKN040=

USA.gov is the U.S. government's official web portal to all federal, state and local government web resources and services.